createdAt,value
2022-12-14T00:04:30.676Z,10.18
2022-12-14T00:09:27.876Z,10.02
2022-12-14T00:14:25.289Z,11.77
2022-12-14T00:19:23.638Z,13.55
2022-12-14T00:24:21.310Z,13.68
2022-12-14T00:29:18.490Z,14.27
2022-12-14T00:34:15.644Z,10.75
2022-12-14T00:39:14.856Z,11.02
2022-12-14T00:44:15.590Z,9.93
2022-12-14T00:49:12.616Z,22.42
2022-12-14T00:54:12.608Z,11.60
2022-12-14T00:59:09.530Z,12.10
2022-12-14T01:04:18.955Z,13.05
2022-12-14T01:09:17.493Z,11.95
2022-12-14T01:14:16.676Z,14.13
2022-12-14T01:19:15.171Z,12.90
2022-12-14T01:24:12.133Z,11.80
2022-12-14T01:29:11.557Z,10.93
2022-12-14T01:34:09.335Z,11.10
2022-12-14T01:39:09.372Z,10.88
2022-12-14T01:44:39.687Z,11.70
2022-12-14T01:49:42.679Z,10.27
2022-12-14T01:54:48.787Z,10.82
2022-12-14T02:04:51.837Z,11.23
2022-12-14T02:09:50.995Z,10.60
2022-12-14T02:14:48.975Z,10.48
2022-12-14T02:19:48.832Z,10.57
2022-12-14T02:25:16.717Z,11.45
2022-12-14T02:30:17.539Z,11.55
2022-12-14T02:35:23.187Z,11.35
2022-12-14T02:40:28.328Z,11.93
2022-12-14T02:45:35.928Z,12.77
2022-12-14T02:50:41.350Z,14.77
2022-12-14T02:55:42.581Z,11.82
2022-12-14T03:00:41.542Z,11.82
2022-12-14T03:05:38.407Z,11.30
2022-12-14T03:10:39.548Z,11.90
2022-12-14T03:15:41.517Z,11.20
2022-12-14T03:20:44.179Z,12.32
2022-12-14T03:25:44.308Z,11.57
2022-12-14T03:31:00.038Z,13.52
2022-12-14T03:36:03.658Z,13.25
2022-12-14T03:41:11.619Z,14.32
2022-12-14T03:46:14.712Z,15.15
2022-12-14T03:51:21.377Z,15.73
2022-12-14T03:56:24.089Z,15.80
2022-12-14T04:01:32.252Z,13.57
2022-12-14T04:06:36.229Z,16.17
2022-12-14T04:11:58.478Z,13.60
2022-12-14T04:17:18.747Z,15.85
2022-12-14T04:22:21.421Z,15.73
2022-12-14T04:27:23.807Z,15.45
2022-12-14T04:32:28.489Z,17.58
2022-12-14T04:37:27.737Z,14.63
2022-12-14T04:42:33.022Z,14.27
2022-12-14T04:47:35.434Z,18.23
2022-12-14T04:52:38.785Z,14.88
2022-12-14T04:57:41.597Z,20.17
2022-12-14T05:02:56.954Z,17.45
2022-12-14T05:08:00.210Z,16.17
2022-12-14T05:13:04.534Z,17.77
2022-12-14T05:18:04.393Z,18.98
2022-12-14T05:23:04.218Z,15.23
2022-12-14T05:28:01.173Z,14.38
2022-12-14T05:32:58.108Z,22.42
2022-12-14T05:37:55.931Z,17.17
2022-12-14T05:43:02.923Z,21.40
2022-12-14T05:47:59.834Z,18.95
2022-12-14T05:53:07.696Z,22.45
2022-12-14T05:58:04.611Z,22.52
2022-12-14T06:03:01.487Z,20.83
2022-12-14T06:08:02.167Z,18.80
2022-12-14T06:12:59.139Z,23.33
2022-12-14T06:18:01.479Z,21.17
2022-12-14T06:22:59.183Z,19.70
2022-12-14T06:27:56.059Z,28.85
2022-12-14T06:32:52.852Z,22.65
2022-12-14T06:37:49.964Z,24.55
2022-12-14T06:42:48.353Z,23.48
2022-12-14T06:47:45.318Z,18.02
2022-12-14T06:52:44.881Z,21.42
2022-12-14T06:57:44.776Z,22.15
2022-12-14T07:02:42.535Z,25.75
2022-12-14T07:07:40.443Z,21.95
2022-12-14T07:12:37.308Z,23.08
2022-12-14T07:17:36.410Z,19.83
2022-12-14T07:22:34.920Z,17.50
2022-12-14T07:27:32.386Z,18.77
2022-12-14T07:32:29.501Z,23.67
2022-12-14T07:37:26.707Z,18.80
2022-12-14T07:42:24.290Z,20.35
2022-12-14T07:47:21.267Z,19.48
2022-12-14T07:52:18.368Z,28.33
2022-12-14T07:57:18.115Z,18.77
2022-12-14T08:02:16.158Z,26.63
2022-12-14T08:07:36.514Z,18.45
2022-12-14T08:12:34.019Z,21.13
2022-12-14T08:17:32.954Z,15.55
2022-12-14T08:22:32.766Z,22.23
2022-12-14T08:27:30.362Z,21.35
2022-12-14T08:32:33.941Z,22.83
2022-12-14T08:37:32.542Z,20.70
2022-12-14T08:42:32.714Z,20.20
2022-12-14T08:47:31.908Z,18.23
2022-12-14T08:52:38.962Z,22.13
2022-12-14T08:57:43.442Z,19.13
2022-12-14T09:02:43.188Z,17.27
2022-12-14T09:07:43.499Z,15.57
2022-12-14T09:12:42.566Z,15.77
2022-12-14T09:17:44.920Z,17.38
2022-12-14T09:22:46.242Z,16.10
2022-12-14T09:28:07.171Z,14.88
2022-12-14T09:33:10.871Z,16.92
2022-12-14T09:38:08.829Z,17.42
2022-12-14T09:43:18.550Z,17.42
2022-12-14T09:48:26.892Z,15.32
2022-12-14T09:53:26.074Z,19.15
2022-12-14T09:58:27.428Z,16.25
2022-12-14T10:03:51.796Z,21.75
2022-12-14T10:08:58.655Z,18.77
2022-12-14T10:14:08.917Z,19.35
2022-12-14T10:19:20.619Z,21.10
2022-12-14T10:24:24.061Z,20.90
2022-12-14T10:29:34.897Z,19.35
2022-12-14T10:34:34.118Z,19.85
2022-12-14T10:39:43.929Z,22.13
2022-12-14T10:45:09.746Z,19.73
2022-12-14T10:50:20.121Z,18.13
2022-12-14T10:55:21.641Z,13.95
2022-12-14T11:00:26.106Z,17.70
2022-12-14T11:05:36.450Z,20.63
2022-12-14T11:10:36.368Z,20.33
2022-12-14T11:15:36.614Z,18.38
2022-12-14T11:20:33.884Z,17.27
2022-12-14T11:25:50.606Z,16.40
2022-12-14T11:30:57.388Z,19.20
2022-12-14T11:35:54.791Z,17.45
2022-12-14T11:40:52.422Z,19.45
2022-12-14T11:45:51.084Z,16.15
2022-12-14T11:50:49.781Z,19.45
2022-12-14T11:55:53.477Z,17.35
2022-12-14T12:00:55.251Z,20.33
2022-12-14T12:05:53.926Z,20.55
2022-12-14T12:10:53.168Z,20.40
2022-12-14T12:15:53.588Z,17.15
2022-12-14T12:20:57.970Z,16.95
2022-12-14T12:25:57.014Z,20.58
2022-12-14T12:30:59.419Z,18.02
2022-12-14T12:36:02.045Z,17.13
2022-12-14T12:41:06.127Z,16.90
2022-12-14T12:46:11.523Z,21.85
2022-12-14T12:51:14.564Z,19.75
2022-12-14T12:56:16.571Z,21.98
2022-12-14T13:01:24.032Z,18.60
2022-12-14T13:06:24.636Z,17.92
2022-12-14T13:11:27.003Z,21.20
2022-12-14T13:16:32.188Z,19.50
2022-12-14T13:21:32.533Z,18.30
2022-12-14T13:26:57.670Z,18.73
2022-12-14T13:32:04.147Z,22.17
2022-12-14T13:42:24.613Z,17.70
2022-12-14T13:47:28.684Z,20.70
2022-12-14T13:52:38.029Z,15.65
2022-12-14T13:57:50.602Z,20.13
2022-12-14T14:02:52.982Z,18.83
2022-12-14T14:07:52.819Z,18.77
2022-12-14T14:12:49.738Z,14.98
2022-12-14T14:17:49.251Z,20.25
2022-12-14T14:23:40.941Z,20.75
2022-12-14T14:28:38.582Z,18.65
2022-12-14T14:33:46.543Z,20.42
2022-12-14T14:38:45.560Z,23.05
2022-12-14T14:43:50.152Z,21.13
2022-12-14T14:48:52.688Z,18.60
2022-12-14T14:55:10.786Z,18.13
2022-12-14T14:59:51.186Z,25.33
2022-12-14T15:04:51.613Z,21.63
2022-12-14T15:09:57.524Z,21.80
2022-12-14T15:14:59.872Z,22.02
2022-12-14T15:19:58.051Z,21.30
2022-12-14T15:24:58.602Z,24.55
2022-12-14T15:30:01.355Z,33.60
2022-12-14T15:35:01.603Z,26.65
2022-12-14T15:40:06.159Z,23.90
2022-12-14T15:45:13.352Z,23.88
2022-12-14T15:50:16.396Z,22.23
2022-12-14T15:55:25.999Z,24.02
2022-12-14T16:00:22.851Z,25.67
2022-12-14T16:05:23.038Z,26.33
2022-12-14T16:10:24.753Z,27.73
2022-12-14T16:15:27.211Z,24.98
2022-12-14T16:20:26.711Z,24.55
2022-12-14T16:25:24.346Z,23.13
2022-12-14T16:30:30.788Z,19.95
2022-12-14T16:35:28.069Z,17.77
2022-12-14T16:40:31.924Z,22.77
2022-12-14T16:46:01.187Z,21.17
2022-12-14T16:51:18.619Z,18.50
2022-12-14T16:56:22.292Z,20.15
2022-12-14T17:01:20.336Z,18.30
2022-12-14T17:06:22.863Z,17.65
2022-12-14T17:11:20.820Z,22.17
2022-12-14T17:16:24.390Z,19.73
2022-12-14T17:21:26.764Z,17.13
2022-12-14T17:26:26.837Z,19.48
2022-12-14T17:31:27.340Z,14.85
2022-12-14T17:36:25.427Z,15.40
2022-12-14T17:41:25.963Z,15.20
2022-12-14T17:46:23.080Z,14.13
2022-12-14T17:51:24.707Z,13.98
2022-12-14T17:56:21.991Z,14.27
2022-12-14T18:01:22.550Z,13.85
2022-12-14T18:06:19.889Z,14.93
2022-12-14T18:11:20.066Z,18.13
2022-12-14T18:16:19.887Z,13.57
2022-12-14T18:21:20.556Z,12.93
2022-12-14T18:26:20.426Z,12.07
2022-12-14T18:31:23.917Z,10.68
2022-12-14T18:36:22.145Z,10.10
2022-12-14T18:41:21.469Z,9.65
2022-12-14T18:46:18.642Z,11.15
2022-12-14T18:51:22.605Z,10.05
2022-12-14T18:56:21.769Z,10.35
2022-12-14T19:01:20.971Z,10.68
2022-12-14T19:06:43.597Z,9.90
2022-12-14T19:11:41.105Z,8.88
2022-12-14T19:16:38.952Z,9.02
2022-12-14T19:21:36.009Z,9.65
2022-12-14T19:26:33.045Z,8.20
2022-12-14T19:31:30.764Z,8.00
2022-12-14T19:36:29.181Z,7.85
2022-12-14T19:41:30.781Z,7.05
2022-12-14T19:46:28.049Z,6.60
2022-12-14T19:51:25.925Z,6.90
2022-12-14T19:56:25.846Z,6.15
2022-12-14T20:01:23.804Z,6.47
2022-12-14T20:06:20.939Z,7.90
2022-12-14T20:11:21.098Z,7.75
2022-12-14T20:16:19.231Z,6.05
2022-12-14T20:21:22.417Z,6.60
2022-12-14T20:26:22.109Z,6.10
2022-12-14T20:31:20.227Z,5.43
2022-12-14T20:36:18.434Z,5.43
2022-12-14T20:41:16.606Z,5.72
2022-12-14T20:46:27.483Z,5.05
2022-12-14T20:51:24.544Z,5.53
2022-12-14T20:56:21.566Z,6.57
2022-12-14T21:01:20.231Z,5.47
2022-12-14T21:06:20.601Z,5.80
2022-12-14T21:11:37.354Z,5.72
2022-12-14T21:16:34.534Z,6.78
2022-12-14T21:21:32.216Z,6.43
2022-12-14T21:26:29.198Z,7.30
2022-12-14T21:31:26.147Z,7.72
2022-12-14T21:36:22.988Z,9.10
2022-12-14T21:41:38.552Z,7.93
2022-12-14T21:46:36.368Z,6.63
2022-12-14T21:51:33.774Z,8.82
2022-12-14T21:56:50.923Z,7.85
2022-12-14T22:01:48.476Z,8.15
2022-12-14T22:06:45.827Z,9.63
2022-12-14T22:11:43.503Z,8.70
2022-12-14T22:16:44.259Z,10.63
2022-12-14T22:21:41.651Z,9.65
2022-12-14T22:26:39.461Z,9.73
2022-12-14T22:31:41.335Z,10.18
2022-12-14T22:36:38.321Z,9.93
2022-12-14T22:41:36.217Z,8.93
2022-12-14T22:46:33.564Z,9.25
2022-12-14T22:51:31.236Z,10.10
2022-12-14T22:56:32.396Z,9.95
2022-12-14T23:01:30.502Z,9.00
2022-12-14T23:06:28.205Z,10.48
2022-12-14T23:11:43.546Z,8.98
2022-12-14T23:16:58.503Z,8.40
2022-12-14T23:22:13.162Z,8.98
2022-12-14T23:27:28.951Z,8.48
2022-12-14T23:32:43.543Z,8.77
2022-12-14T23:37:58.023Z,10.10
2022-12-14T23:43:13.582Z,9.50
2022-12-14T23:48:28.953Z,10.60
2022-12-14T23:53:44.152Z,10.23
2022-12-14T23:59:08.176Z,10.98
